Time;durP1;ratioP1;P1;durP2;ratioP2;P2;SDS_P1;SDS_P2;PMS_P1;PMS_P2;Temp;Humidity;BMP_temperature;BMP_pressure;BME280_temperature;BME280_humidity;BME280_pressure;Samples;Min_cycle;Max_cycle;Signal;HPM_P1;HPM_P2
2023/01/16 00:00:00;;;;;;;81.40;75.70;;;;;;;3.49;100.00;99158.48;1755195;80;27184;-40
2023/01/16 00:02:26;;;;;;;84.28;78.02;;;;;;;3.50;100.00;99172.63;1784028;80;25617;-41
2023/01/16 00:04:53;;;;;;;81.45;75.67;;;;;;;3.47;100.00;99170.53;1783972;80;26165;-41
2023/01/16 00:07:20;;;;;;;84.32;78.28;;;;;;;3.47;100.00;99167.30;1784008;80;25388;-41
2023/01/16 00:09:46;;;;;;;80.53;75.08;;;;;;;3.45;100.00;99171.37;1783945;80;27414;-41
2023/01/16 00:12:12;;;;;;;81.25;75.47;;;;;;;3.45;100.00;99166.02;1783909;80;25657;-46
2023/01/16 00:14:39;;;;;;;82.20;76.42;;;;;;;3.42;100.00;99166.04;1784103;80;25540;-41
2023/01/16 00:17:07;;;;;;;82.40;76.75;;;;;;;3.42;100.00;99161.24;1783953;80;25661;-41
2023/01/16 00:19:33;;;;;;;83.42;77.58;;;;;;;3.41;100.00;99165.02;1784042;80;25560;-40
2023/01/16 00:22:00;;;;;;;80.45;74.90;;;;;;;3.39;100.00;99164.48;1784010;80;27648;-40
2023/01/16 00:24:28;;;;;;;83.85;77.78;;;;;;;3.36;100.00;99163.20;1755018;80;25519;-41
2023/01/16 00:26:54;;;;;;;81.87;76.15;;;;;;;3.36;100.00;99165.33;1779438;80;25565;-42
2023/01/16 00:29:21;;;;;;;82.70;76.97;;;;;;;3.33;100.00;99159.77;1783998;80;25677;-41
2023/01/16 00:31:47;;;;;;;80.97;75.08;;;;;;;3.32;100.00;99169.67;1784174;80;25436;-41
2023/01/16 00:34:15;;;;;;;80.30;74.72;;;;;;;3.31;100.00;99170.73;1755713;80;28026;-41
2023/01/16 00:36:41;;;;;;;80.20;74.53;;;;;;;3.30;100.00;99165.68;1784017;80;25605;-41
2023/01/16 00:39:08;;;;;;;81.42;75.72;;;;;;;3.29;100.00;99169.45;1783952;80;25383;-39
2023/01/16 00:41:34;;;;;;;81.00;75.35;;;;;;;3.27;100.00;99174.27;1783944;80;25646;-39
2023/01/16 00:44:01;;;;;;;82.42;76.35;;;;;;;3.26;100.00;99176.70;1783890;80;25758;-41
2023/01/16 00:46:29;;;;;;;82.62;76.75;;;;;;;3.23;100.00;99184.73;1784050;80;27332;-41
2023/01/16 00:48:57;;;;;;;81.90;76.12;;;;;;;3.21;100.00;99175.44;1783914;80;25669;-41
2023/01/16 00:51:24;;;;;;;83.22;77.30;;;;;;;3.18;100.00;99176.27;1783994;80;25455;-40
2023/01/16 00:53:52;;;;;;;82.10;76.17;;;;;;;3.16;100.00;99178.95;1783926;80;26137;-40
2023/01/16 00:56:18;;;;;;;84.80;78.78;;;;;;;3.14;100.00;99169.89;1784011;80;25463;-40
2023/01/16 00:58:44;;;;;;;82.62;76.50;;;;;;;3.12;100.00;99181.41;1784172;80;27312;-40
2023/01/16 01:01:11;;;;;;;83.00;76.97;;;;;;;3.10;100.00;99186.77;1784114;80;25914;-39
2023/01/16 01:03:38;;;;;;;82.53;76.62;;;;;;;3.08;100.00;99184.41;1755120;80;25645;-40
2023/01/16 01:06:13;;;;;;;82.30;76.50;;;;;;;3.06;100.00;99190.56;1784081;80;25667;-40
2023/01/16 01:08:40;;;;;;;82.40;75.83;;;;;;;3.04;100.00;99183.92;1784231;80;25643;-41
2023/01/16 01:11:13;;;;;;;81.53;75.87;;;;;;;3.01;100.00;99181.81;1784084;80;27389;-40
2023/01/16 01:13:41;;;;;;;83.40;77.20;;;;;;;2.98;100.00;99180.53;1784184;80;25770;-40
2023/01/16 01:16:10;;;;;;;81.80;75.90;;;;;;;2.94;100.00;99184.28;1784128;80;25403;-42
2023/01/16 01:18:38;;;;;;;82.90;76.97;;;;;;;2.93;100.00;99181.92;1784258;80;26301;-41
2023/01/16 01:21:05;;;;;;;82.92;77.10;;;;;;;2.90;100.00;99177.93;1784142;80;25563;-40
2023/01/16 01:23:33;;;;;;;81.63;75.70;;;;;;;2.88;100.00;99174.76;1755501;80;27087;-41
2023/01/16 01:26:11;;;;;;;81.57;75.85;;;;;;;2.86;100.00;99176.11;1755530;80;25874;-41
2023/01/16 01:28:39;;;;;;;83.62;77.53;;;;;;;2.83;100.00;99172.66;1784385;80;25557;-41
2023/01/16 01:31:11;;;;;;;82.80;76.87;;;;;;;2.81;100.00;99178.31;1756004;80;25948;-40
2023/01/16 01:33:39;;;;;;;82.47;76.60;;;;;;;2.78;100.00;99179.66;1755513;80;25646;-40
2023/01/16 01:36:08;;;;;;;83.45;77.42;;;;;;;2.77;100.00;99171.94;1784198;80;27382;-43
2023/01/16 01:38:36;;;;;;;84.07;77.90;;;;;;;2.76;100.00;99175.70;1784100;80;25729;-40
2023/01/16 01:41:04;;;;;;;83.35;77.32;;;;;;;2.73;100.00;99178.39;1784149;80;25250;-41
2023/01/16 01:43:48;;;;;;;85.42;79.15;;;;;;;2.73;100.00;99173.59;1784739;80;25619;-42
2023/01/16 01:46:31;;;;;;;84.35;78.25;;;;;;;2.71;100.00;99175.21;1787251;80;25584;-42
2023/01/16 01:49:03;;;;;;;85.28;78.72;;;;;;;2.71;100.00;99173.88;1787199;80;27347;-40
2023/01/16 01:51:36;;;;;;;84.75;78.65;;;;;;;2.70;100.00;99170.94;1787613;80;25453;-41
2023/01/16 01:54:09;;;;;;;82.22;76.33;;;;;;;2.68;100.00;99170.44;1787484;80;25614;-42
2023/01/16 01:56:57;;;;;;;82.30;76.28;;;;;;;2.67;100.00;99170.71;1788027;80;25681;-39
2023/01/16 01:59:33;;;;;;;84.47;78.57;;;;;;;2.66;100.00;99171.81;1788303;80;25454;-41
2023/01/16 02:02:02;;;;;;;83.42;77.20;;;;;;;2.65;100.00;99167.53;1784617;80;28078;-40
2023/01/16 02:04:35;;;;;;;85.67;79.67;;;;;;;2.64;100.00;99167.27;1787730;80;25409;-40
2023/01/16 02:07:07;;;;;;;83.40;77.47;;;;;;;2.61;100.00;99155.30;1761119;80;25416;-40
2023/01/16 02:09:37;;;;;;;83.60;77.45;;;;;;;2.60;100.00;99155.81;1787368;80;25824;-39
2023/01/16 02:12:09;;;;;;;;;;;;;;;2.59;100.00;99157.46;1789939;80;25452;-40
2023/01/16 02:14:40;;;;;;;84.42;78.42;;;;;;;2.57;100.00;99149.73;1795003;80;27383;-39
2023/01/16 02:20:10;;;;;;;81.40;75.72;;;;;;;2.54;100.00;99151.62;1794945;80;25518;-42
2023/01/16 02:22:57;;;;;;;83.25;77.15;;;;;;;2.52;100.00;99151.12;1762639;81;25623;-40
2023/01/16 02:25:49;;;;;;;84.92;79.00;;;;;;;2.50;100.00;99149.80;1729828;82;25465;-40
2023/01/16 02:28:40;;;;;;;84.13;77.87;;;;;;;2.47;100.00;99142.35;1729946;82;27210;-39
2023/01/16 02:31:30;;;;;;;82.85;77.05;;;;;;;2.42;100.00;99144.00;1729786;82;25695;-39
2023/01/16 02:34:13;;;;;;;83.58;77.50;;;;;;;2.41;100.00;99142.95;1729942;82;25581;-41
2023/01/16 02:36:57;;;;;;;82.10;76.35;;;;;;;2.37;100.00;99145.94;1729746;82;25707;-40
2023/01/16 02:39:50;;;;;;;85.57;79.25;;;;;;;2.35;100.00;99140.88;1704568;82;25784;-41
2023/01/16 02:42:39;;;;;;;84.80;78.67;;;;;;;2.32;100.00;99148.66;1729871;82;27384;-41
2023/01/16 02:45:23;;;;;;;87.75;81.25;;;;;;;2.29;100.00;99143.88;1715830;82;27209;-40
2023/01/16 02:48:06;;;;;;;84.15;78.05;;;;;;;2.24;100.00;99138.83;1698011;84;25692;-40
2023/01/16 02:50:47;;;;;;;83.97;77.67;;;;;;;2.21;100.00;99135.94;1695840;84;26373;-39
2023/01/16 02:53:18;;;;;;;83.60;77.60;;;;;;;2.18;100.00;99141.83;1697982;84;25693;-40
2023/01/16 02:56:02;;;;;;;84.70;78.60;;;;;;;2.16;100.00;99146.66;1697876;84;27465;-40
2023/01/16 02:58:30;;;;;;;86.22;79.80;;;;;;;2.12;100.00;99138.42;1697048;84;25927;-40
2023/01/16 03:01:00;;;;;;;82.92;76.77;;;;;;;2.10;100.00;99140.58;1697852;84;25649;-40
2023/01/16 03:03:57;;;;;;;86.97;80.53;;;;;;;2.09;100.00;99146.98;1746341;81;26207;-40
2023/01/16 03:06:45;;;;;;;86.92;80.32;;;;;;;2.05;100.00;99142.75;1758134;81;25533;-41
2023/01/16 03:09:34;;;;;;;85.53;78.87;;;;;;;2.04;100.00;99143.02;1758115;81;28350;-41
2023/01/16 03:12:13;;;;;;;60.27;55.73;;;;;;;2.02;100.00;99141.18;1757863;81;25404;-41
2023/01/16 03:15:00;;;;;;;85.80;79.22;;;;;;;1.98;100.00;99138.28;1728050;81;25611;-40
2023/01/16 03:17:50;;;;;;;86.10;79.55;;;;;;;1.97;100.00;99143.89;1756647;81;26852;-40
2023/01/16 03:20:31;;;;;;;86.08;79.77;;;;;;;1.93;100.00;99138.87;1759710;80;25415;-40
2023/01/16 03:23:14;;;;;;;83.90;77.58;;;;;;;1.89;100.00;99130.64;1757665;81;27306;-40
2023/01/16 03:25:55;;;;;;;82.62;76.50;;;;;;;1.86;100.00;99137.31;1757994;81;27229;-42
2023/01/16 03:28:42;;;;;;;86.05;79.55;;;;;;;1.84;100.00;99131.47;1758160;81;25579;-41
2023/01/16 03:31:24;;;;;;;85.35;78.95;;;;;;;1.81;100.00;99136.56;1731793;81;25690;-42
2023/01/16 03:34:21;;;;;;;84.67;78.42;;;;;;;1.79;100.00;99134.17;1757371;81;25508;-40
2023/01/16 03:37:08;;;;;;;84.50;78.30;;;;;;;1.77;100.00;99134.17;1758093;81;27346;-40
2023/01/16 03:39:49;;;;;;;84.85;78.45;;;;;;;1.75;100.00;99145.12;1758082;81;25186;-40
2023/01/16 03:42:28;;;;;;;86.45;79.97;;;;;;;1.73;100.00;99147.82;1758307;80;25317;-39
2023/01/16 03:45:00;;;;;;;84.03;77.82;;;;;;;1.71;100.00;99146.76;1763797;81;26437;-40
2023/01/16 03:47:31;;;;;;;86.30;79.90;;;;;;;1.70;100.00;99141.70;1769967;81;25601;-42
2023/01/16 03:50:06;;;;;;;83.17;77.10;;;;;;;1.67;100.00;99145.73;1768806;81;27404;-40
2023/01/16 03:52:38;;;;;;;83.35;77.00;;;;;;;1.65;100.00;99146.01;1769935;81;25594;-40
2023/01/16 03:55:37;;;;;;;83.65;77.47;;;;;;;1.63;100.00;99149.47;1770096;81;25628;-41
2023/01/16 03:58:11;;;;;;;84.32;78.02;;;;;;;1.63;100.00;99144.68;1752811;81;26322;-40
2023/01/16 04:00:48;;;;;;;83.40;77.10;;;;;;;1.61;100.00;99148.95;1770097;81;25491;-39
2023/01/16 04:03:23;;;;;;;87.08;80.45;;;;;;;1.60;100.00;99147.37;1770097;81;28140;-39
2023/01/16 04:06:07;;;;;;;85.70;79.22;;;;;;;1.58;100.00;99142.84;1769973;81;25655;-40
2023/01/16 04:08:38;;;;;;;85.35;79.12;;;;;;;1.58;100.00;99146.05;1768039;81;25441;-38
2023/01/16 04:11:08;;;;;;;84.58;78.00;;;;;;;1.57;100.00;99146.59;1770047;81;25992;-39
2023/01/16 04:13:38;;;;;;;85.50;79.22;;;;;;;1.54;100.00;99139.15;1770199;80;25646;-39
2023/01/16 04:16:13;;;;;;;85.00;78.87;;;;;;;1.55;100.00;99135.42;1770032;80;27992;-39
2023/01/16 04:18:40;;;;;;;84.55;78.35;;;;;;;1.54;100.00;99141.03;1739915;81;25479;-41
2023/01/16 04:21:08;;;;;;;82.30;76.22;;;;;;;1.53;100.00;99140.20;1769890;81;25447;-42
2023/01/16 04:23:37;;;;;;;84.80;78.42;;;;;;;1.51;100.00;99146.36;1769896;81;25603;-40
2023/01/16 04:26:04;;;;;;;83.72;77.53;;;;;;;1.51;100.00;99146.36;1769974;81;25630;-39
2023/01/16 04:28:32;;;;;;;83.60;77.20;;;;;;;1.50;100.00;99147.45;1769922;81;28218;-41
2023/01/16 04:30:59;;;;;;;83.90;77.60;;;;;;;1.48;100.00;99143.72;1769785;81;25545;-39
2023/01/16 04:33:25;;;;;;;85.50;79.00;;;;;;;1.48;100.00;99145.58;1769954;80;25642;-39
2023/01/16 04:35:53;;;;;;;83.45;77.25;;;;;;;1.45;100.00;99150.94;1739907;81;25667;-41
2023/01/16 04:38:19;;;;;;;84.55;78.33;;;;;;;1.43;100.00;99151.75;1769929;81;25557;-39
2023/01/16 04:40:45;;;;;;;84.60;78.15;;;;;;;1.42;100.00;99146.70;1769886;81;27374;-38
2023/01/16 04:43:12;;;;;;;83.30;76.97;;;;;;;1.40;100.00;99145.64;1770031;81;25233;-41
2023/01/16 04:45:41;;;;;;;83.95;77.37;;;;;;;1.39;100.00;99146.70;1769848;81;25547;-38
2023/01/16 04:48:09;;;;;;;84.10;78.00;;;;;;;1.37;100.00;99152.05;1739514;81;26056;-39
2023/01/16 04:50:35;;;;;;;84.55;78.42;;;;;;;1.36;100.00;99149.91;1770013;81;25578;-39
2023/01/16 04:53:02;;;;;;;83.45;77.25;;;;;;;1.35;100.00;99152.88;1769920;81;27379;-41
2023/01/16 04:55:28;;;;;;;84.22;77.80;;;;;;;1.32;100.00;99156.88;1769832;81;25683;-39
2023/01/16 04:57:54;;;;;;;85.30;78.60;;;;;;;1.30;100.00;99155.81;1739031;81;25405;-40
2023/01/16 05:00:22;;;;;;;86.10;79.45;;;;;;;1.27;100.00;99161.68;1769846;81;25643;-40
2023/01/16 05:02:48;;;;;;;83.15;77.17;;;;;;;1.24;100.00;99166.25;1739368;81;25504;-38
2023/01/16 05:05:16;;;;;;;87.33;80.87;;;;;;;1.25;100.00;99162.50;1770020;81;27230;-40
2023/01/16 05:07:42;;;;;;;84.75;78.57;;;;;;;1.24;100.00;99154.27;1770062;81;25634;-38
2023/01/16 05:10:10;;;;;;;83.22;77.12;;;;;;;1.23;100.00;99151.33;1770182;81;25566;-40
2023/01/16 05:12:37;;;;;;;85.38;79.07;;;;;;;1.22;100.00;99152.39;1764941;81;25650;-39
2023/01/16 05:15:06;;;;;;;85.10;78.60;;;;;;;1.19;100.00;99144.97;1738957;81;25462;-38
2023/01/16 05:17:32;;;;;;;;;;;;;;;1.18;100.00;99151.36;1767568;81;27338;-39
2023/01/16 05:19:58;;;;;;;80.20;74.30;;;;;;;1.18;100.00;99153.23;1769822;81;25545;-40
2023/01/16 05:22:24;;;;;;;84.35;78.20;;;;;;;1.16;100.00;99152.69;1769948;81;25645;-39
2023/01/16 05:24:50;;;;;;;82.27;76.22;;;;;;;1.14;100.00;99150.29;1769842;81;25618;-38
2023/01/16 05:27:17;;;;;;;85.83;79.37;;;;;;;1.13;100.00;99145.27;1739137;81;25445;-39
2023/01/16 05:29:43;;;;;;;84.43;78.23;;;;;;;1.13;100.00;99152.71;1739795;81;27311;-39
2023/01/16 05:32:09;;;;;;;82.92;76.77;;;;;;;1.10;100.00;99146.05;1769807;81;25701;-40
2023/01/16 05:34:35;;;;;;;84.60;78.30;;;;;;;1.10;100.00;99147.92;1769957;81;25471;-40
2023/01/16 05:37:02;;;;;;;84.80;78.40;;;;;;;1.08;100.00;99141.54;1769822;81;25692;-40
2023/01/16 05:39:28;;;;;;;86.42;79.90;;;;;;;1.08;100.00;99136.21;1769930;81;25389;-39
2023/01/16 05:41:55;;;;;;;84.67;78.40;;;;;;;1.08;100.00;99138.88;1769831;81;29585;-39
2023/01/16 05:44:21;;;;;;;84.85;78.47;;;;;;;1.05;100.00;99139.42;1737866;81;25731;-39
2023/01/16 05:46:50;;;;;;;84.07;77.75;;;;;;;1.04;100.00;99137.03;1755462;81;25621;-40
2023/01/16 05:49:17;;;;;;;85.28;79.07;;;;;;;1.02;100.00;99129.34;1755398;81;25816;-40
2023/01/16 05:51:43;;;;;;;85.17;78.40;;;;;;;1.01;100.00;99134.39;1755465;81;25531;-39
2023/01/16 05:54:12;;;;;;;84.47;78.28;;;;;;;1.00;100.00;99134.66;1755432;81;29697;-39
2023/01/16 05:56:40;;;;;;;60.23;55.43;;;;;;;0.97;100.00;99140.02;1755503;81;25458;-40
2023/01/16 05:59:08;;;;;;;87.53;80.92;;;;;;;0.93;100.00;99134.41;1755377;81;25586;-40
2023/01/16 06:01:35;;;;;;;84.22;77.92;;;;;;;0.92;100.00;99128.05;1755407;81;25620;-40
2023/01/16 06:04:01;;;;;;;85.55;79.07;;;;;;;0.89;100.00;99124.05;1755614;81;25606;-39
2023/01/16 06:06:29;;;;;;;87.08;80.55;;;;;;;0.90;100.00;99123.52;1755528;81;29463;-40
2023/01/16 06:08:55;;;;;;;84.50;78.20;;;;;;;0.88;100.00;99120.33;1755491;81;25734;-41
2023/01/16 06:11:21;;;;;;;88.58;81.92;;;;;;;0.85;100.00;99111.05;1755482;81;25631;-41
2023/01/16 06:13:47;;;;;;;87.55;80.67;;;;;;;0.83;100.00;99113.70;1755526;81;33623;-40
2023/01/16 06:16:13;;;;;;;86.60;80.05;;;;;;;0.83;100.00;99115.03;1729315;81;25464;-39
2023/01/16 06:18:39;;;;;;;84.13;77.92;;;;;;;0.81;100.00;99115.84;1755373;81;27351;-39
2023/01/16 06:21:05;;;;;;;83.15;77.12;;;;;;;0.80;100.00;99114.23;1729069;81;25656;-39
2023/01/16 06:23:32;;;;;;;85.90;79.47;;;;;;;0.77;100.00;99111.60;1755387;81;25699;-39
2023/01/16 06:25:58;;;;;;;83.90;77.60;;;;;;;0.77;100.00;99114.27;1755388;81;25668;-41
2023/01/16 06:28:24;;;;;;;86.03;79.47;;;;;;;0.75;100.00;99109.76;1755487;81;29582;-40
2023/01/16 06:30:52;;;;;;;87.75;81.08;;;;;;;0.75;100.00;99112.42;1754705;81;27336;-40
2023/01/16 06:33:20;;;;;;;84.80;78.45;;;;;;;0.70;100.00;99110.56;1755306;81;25470;-39
2023/01/16 06:35:48;;;;;;;85.30;79.00;;;;;;;0.71;100.00;99112.14;1755393;81;25610;-39
2023/01/16 06:38:14;;;;;;;84.67;78.30;;;;;;;0.71;100.00;99116.13;1755436;81;25628;-40
2023/01/16 06:40:44;;;;;;;86.22;79.53;;;;;;;0.71;100.00;99118.00;1755446;81;25542;-40
2023/01/16 06:43:09;;;;;;;88.33;81.78;;;;;;;0.70;100.00;99118.55;1754931;81;27400;-40
2023/01/16 06:45:35;;;;;;;84.77;78.47;;;;;;;0.69;100.00;99119.61;1761794;81;25822;-39
2023/01/16 06:48:03;;;;;;;84.07;77.90;;;;;;;0.69;100.00;99126.26;1770043;81;25636;-41
2023/01/16 06:50:29;;;;;;;90.77;83.67;;;;;;;0.68;100.00;99127.86;1769978;81;26395;-39
2023/01/16 06:52:56;;;;;;;83.10;76.90;;;;;;;0.67;100.00;99127.61;1770027;81;25456;-40
2023/01/16 06:55:24;;;;;;;85.60;79.30;;;;;;;0.69;100.00;99127.59;1770013;81;27420;-40
2023/01/16 06:57:50;;;;;;;85.72;79.30;;;;;;;0.68;100.00;99132.67;1769868;81;25582;-41
2023/01/16 07:00:19;;;;;;;89.40;82.67;;;;;;;0.67;100.00;99124.41;1770036;81;25652;-40
2023/01/16 07:02:55;;;;;;;86.30;79.70;;;;;;;0.68;100.00;99120.69;1770168;81;25816;-40
2023/01/16 07:05:26;;;;;;;87.45;80.75;;;;;;;0.69;100.00;99120.94;1770114;81;25574;-40
2023/01/16 07:07:56;;;;;;;83.95;77.92;;;;;;;0.70;100.00;99121.75;1770086;81;27343;-40
2023/01/16 07:10:25;;;;;;;90.00;83.22;;;;;;;0.69;100.00;99108.95;1770048;81;25837;-39
2023/01/16 07:12:53;;;;;;;86.93;80.43;;;;;;;0.72;100.00;99106.30;1770269;81;25518;-39
2023/01/16 07:24:10;;;;;;;87.33;80.72;;;;;;;0.78;100.00;99118.50;1769958;81;27216;-41
2023/01/16 07:26:41;;;;;;;84.07;77.82;;;;;;;0.80;100.00;99115.06;1770145;80;25531;-39
2023/01/16 07:29:09;;;;;;;84.92;78.57;;;;;;;0.85;100.00;99124.87;1769941;81;25595;-39
2023/01/16 07:31:38;;;;;;;84.75;78.40;;;;;;;0.86;100.00;99117.16;1739669;81;25637;-41
2023/01/16 07:34:04;;;;;;;83.82;77.60;;;;;;;0.89;100.00;99113.41;1770075;81;27405;-40
2023/01/16 07:36:30;;;;;;;88.80;81.82;;;;;;;0.92;100.00;99120.06;1769866;81;25435;-40
2023/01/16 07:38:57;;;;;;;87.35;80.35;;;;;;;0.95;100.00;99111.51;1769954;81;25541;-40
2023/01/16 07:41:23;;;;;;;87.40;80.75;;;;;;;0.99;100.00;99110.42;1739096;81;25538;-41
2023/01/16 07:43:51;;;;;;;86.22;79.32;;;;;;;1.03;100.00;99113.60;1769997;81;25534;-39
2023/01/16 07:46:19;;;;;;;88.07;81.53;;;;;;;1.08;100.00;99108.80;1761039;81;28237;-40
2023/01/16 07:48:47;;;;;;;90.12;83.22;;;;;;;1.11;100.00;99108.25;1755418;81;25686;-39
2023/01/16 07:51:13;;;;;;;87.42;80.55;;;;;;;1.17;100.00;99111.67;1754931;81;25629;-39
2023/01/16 07:53:39;;;;;;;85.83;79.45;;;;;;;1.26;100.00;99104.67;1755470;81;25730;-39
2023/01/16 07:56:07;;;;;;;86.05;79.55;;;;;;;1.34;100.00;99105.42;1754358;81;25829;-39
2023/01/16 07:58:33;;;;;;;86.75;80.32;;;;;;;1.41;100.00;99103.24;1754319;81;27418;-39
2023/01/16 08:01:01;;;;;;;85.25;78.97;;;;;;;1.55;100.00;99097.29;1729476;81;25705;-39
2023/01/16 08:03:27;;;;;;;85.72;79.37;;;;;;;1.71;100.00;99104.65;1755299;81;25396;-39
2023/01/16 08:05:59;;;;;;;84.90;78.47;;;;;;;1.85;100.00;99106.92;1755255;81;25658;-41
2023/01/16 08:08:27;;;;;;;86.40;80.20;;;;;;;1.97;100.00;99099.34;1755372;81;25578;-39
2023/01/16 08:10:57;;;;;;;84.17;77.92;;;;;;;2.06;100.00;99095.55;1729457;81;27902;-39
2023/01/16 08:13:26;;;;;;;84.70;78.50;;;;;;;2.07;100.00;99096.34;1755326;81;26607;-41
2023/01/16 08:15:54;;;;;;;83.78;77.30;;;;;;;2.11;100.00;99100.02;1755520;81;25404;-40
2023/01/16 08:18:22;;;;;;;90.77;83.92;;;;;;;2.16;100.00;99098.11;1754951;81;25674;-39
2023/01/16 08:20:50;;;;;;;83.90;77.27;;;;;;;2.23;100.00;99099.09;1755196;81;25633;-40
2023/01/16 08:23:18;;;;;;;86.55;79.97;;;;;;;2.33;100.00;99092.86;1755432;81;27297;-42
2023/01/16 08:25:44;;;;;;;87.78;81.00;;;;;;;2.41;100.00;99096.24;1755520;81;25668;-40
2023/01/16 08:28:10;;;;;;;84.30;78.00;;;;;;;2.47;100.00;99096.97;1755469;81;25631;-42
2023/01/16 08:30:36;;;;;;;84.47;78.00;;;;;;;2.48;100.00;99091.35;1755414;81;32832;-39
2023/01/16 08:33:02;;;;;;;84.37;77.42;;;;;;;2.53;100.00;99100.64;1755317;81;25359;-39
2023/01/16 08:35:30;;;;;;;85.57;78.90;;;;;;;2.60;100.00;99096.30;1755358;81;28057;-41
2023/01/16 08:37:57;;;;;;;83.52;77.25;;;;;;;2.68;100.00;99090.33;1755219;81;25448;-40
2023/01/16 08:40:24;;;;;;;88.03;81.37;;;;;;;2.77;100.00;99095.83;1755338;81;25571;-39
2023/01/16 08:51:25;;;;;;;84.15;77.87;;;;;;;2.94;100.00;99089.45;1769891;81;27143;-39
2023/01/16 08:53:52;;;;;;;82.27;76.12;;;;;;;2.99;100.00;99087.27;1767125;81;25614;-42
2023/01/16 08:56:22;;;;;;;87.78;81.12;;;;;;;3.04;100.00;99091.75;1767819;81;26277;-40
2023/01/16 08:58:50;;;;;;;83.37;77.05;;;;;;;3.10;100.00;99086.05;1770072;81;25445;-41
2023/01/16 09:01:19;;;;;;;86.20;79.90;;;;;;;3.14;100.00;99083.05;1769885;81;27343;-40
2023/01/16 09:03:47;;;;;;;83.23;77.10;;;;;;;3.25;100.00;99075.70;1739753;81;25748;-40
2023/01/16 09:06:14;;;;;;;83.55;77.22;;;;;;;3.32;100.00;99073.97;1769938;80;25569;-40
2023/01/16 09:08:42;;;;;;;81.75;75.70;;;;;;;3.40;100.00;99074.65;1769865;81;27863;-40
2023/01/16 09:14:00;;;;;;;83.15;76.95;;;;;;;3.54;100.00;99075.52;1769938;81;27364;-41
2023/01/16 09:16:27;;;;;;;87.78;81.32;;;;;;;3.55;100.00;99068.28;1751447;81;25840;-42
2023/01/16 09:18:55;;;;;;;82.60;76.60;;;;;;;3.56;100.00;99063.20;1770041;81;25385;-39
2023/01/16 09:21:24;;;;;;;84.62;78.20;;;;;;;3.60;100.00;99065.52;1769987;81;25752;-39
2023/01/16 09:23:53;;;;;;;83.17;76.77;;;;;;;3.64;100.00;99061.16;1770281;81;25389;-39
2023/01/16 09:26:22;;;;;;;85.42;79.10;;;;;;;3.72;100.00;99061.84;1770259;81;27345;-38
2023/01/16 09:28:48;;;;;;;83.87;77.53;;;;;;;3.76;100.00;99057.25;1769997;81;25385;-40
2023/01/16 09:31:18;;;;;;;86.22;79.70;;;;;;;3.76;100.00;99055.36;1739109;81;25640;-38
2023/01/16 09:33:52;;;;;;;84.20;77.80;;;;;;;3.79;100.00;99050.77;1770099;80;25611;-39
2023/01/16 09:36:18;;;;;;;90.50;83.47;;;;;;;3.81;100.00;99054.48;1770171;81;25479;-40
2023/01/16 09:38:44;;;;;;;84.80;78.10;;;;;;;3.75;98.78;99055.13;1770061;80;27330;-40
2023/01/16 09:44:07;;;;;;;84.03;77.78;;;;;;;3.73;99.95;99047.94;1770324;81;25597;-41
2023/01/16 09:46:42;;;;;;;86.87;79.77;;;;;;;3.78;99.53;99043.03;1760265;81;25628;-38
2023/01/16 09:49:29;;;;;;;86.30;79.72;;;;;;;3.78;99.34;99049.72;1754324;81;25429;-38
2023/01/16 10:00:31;;;;;;;89.65;82.55;;;;;;;3.90;99.64;99030.78;1755484;81;26161;-39
2023/01/16 10:02:59;;;;;;;19.92;10.15;;;;;;;3.89;99.46;99035.08;1755576;81;25389;-39
2023/01/16 10:05:31;;;;;;;17.05;10.43;;;;;;;3.86;98.89;99029.77;1755331;81;27444;-39
2023/01/16 10:08:12;;;;;;;18.48;9.88;;;;;;;3.90;99.00;99031.33;1755396;81;25393;-39
2023/01/16 10:10:55;;;;;;;20.77;11.33;;;;;;;3.91;98.80;99035.02;1755593;81;25576;-39
2023/01/16 10:13:48;;;;;;;19.15;11.22;;;;;;;3.96;99.23;99028.80;1755458;81;25624;-39
2023/01/16 10:16:42;;;;;;;20.02;10.90;;;;;;;4.05;99.84;99024.88;1755020;81;25420;-39
2023/01/16 10:19:22;;;;;;;18.15;9.68;;;;;;;4.11;100.00;99021.82;1755576;81;28024;-39
2023/01/16 10:22:11;;;;;;;20.65;11.20;;;;;;;4.07;98.38;99020.03;1755481;81;25577;-41
2023/01/16 10:25:13;;;;;;;21.75;11.50;;;;;;;4.02;97.14;99020.12;1755415;81;25551;-38
2023/01/16 10:28:00;;;;;;;19.30;10.78;;;;;;;3.95;97.48;99007.69;1755029;81;25587;-39
2023/01/16 10:30:32;;;;;;;23.07;11.03;;;;;;;3.91;96.95;98997.57;1755267;81;25409;-39
2023/01/16 10:33:17;;;;;;;18.27;9.80;;;;;;;3.85;96.24;98995.31;1754228;81;27483;-41
2023/01/16 10:35:48;;;;;;;23.40;10.58;;;;;;;3.79;97.48;98987.91;1755329;81;25622;-40
2023/01/16 10:38:45;;;;;;;29.65;15.18;;;;;;;3.80;97.46;98986.02;1729803;81;25507;-39
2023/01/16 10:50:09;;;;;;;22.10;11.35;;;;;;;3.72;98.08;98965.55;1755414;81;25393;-39
2023/01/16 10:52:38;;;;;;;24.18;12.18;;;;;;;3.69;97.99;98972.05;1729654;81;25637;-39
2023/01/16 10:55:08;;;;;;;14.68;7.97;;;;;;;3.69;98.27;98960.79;1755609;81;25800;-38
2023/01/16 10:57:40;;;;;;;24.15;14.03;;;;;;;3.67;97.65;98956.84;1755492;81;25495;-38
2023/01/16 11:00:14;;;;;;;24.92;15.25;;;;;;;3.59;97.51;98944.94;1755445;81;28035;-39
2023/01/16 11:02:46;;;;;;;32.98;29.55;;;;;;;3.58;97.87;98943.36;1755299;81;25758;-39
2023/01/16 11:05:32;;;;;;;52.50;48.08;;;;;;;3.53;97.41;98933.55;1755482;81;25478;-39
2023/01/16 11:08:20;;;;;;;72.92;66.92;;;;;;;3.54;98.33;98939.67;1768034;81;25626;-39
2023/01/16 11:10:51;;;;;;;40.20;34.70;;;;;;;3.53;97.58;98930.09;1737114;81;25658;-39
2023/01/16 11:19:27;;;;;;;79.75;73.72;;;;;;;3.46;98.12;98921.67;1768350;81;25564;-39
2023/01/16 11:22:11;;;;;;;88.40;81.53;;;;;;;3.42;98.03;98916.09;1768156;81;25687;-39
2023/01/16 11:24:41;;;;;;;69.62;63.95;;;;;;;3.40;98.13;98910.80;1768245;81;25527;-39
2023/01/16 11:27:14;;;;;;;52.23;47.70;;;;;;;3.35;98.02;98903.14;1768163;81;28179;-38
2023/01/16 11:29:43;;;;;;;65.03;58.85;;;;;;;3.32;97.58;98896.23;1768163;81;25648;-40
2023/01/16 11:32:14;;;;;;;65.22;60.05;;;;;;;3.28;98.17;98896.58;1768220;81;25660;-39
2023/01/16 11:34:47;;;;;;;88.58;81.47;;;;;;;3.31;98.17;98896.00;1768159;81;25599;-39
2023/01/16 11:37:16;;;;;;;87.55;80.53;;;;;;;3.30;98.56;98886.38;1768166;81;25685;-39
2023/01/16 11:39:50;;;;;;;88.27;81.35;;;;;;;3.30;98.52;98883.19;1768142;81;27352;-39
2023/01/16 11:48:22;;;;;;;88.00;81.20;;;;;;;3.31;98.46;98878.63;1670849;85;25721;-39
2023/01/16 11:50:36;;;;;;;88.33;81.45;;;;;;;3.35;98.61;98874.27;1670951;85;25574;-41
2023/01/16 11:53:04;;;;;;;86.90;80.38;;;;;;;3.35;99.05;98867.06;1670885;85;27418;-39
2023/01/16 11:55:39;;;;;;;86.70;79.90;;;;;;;3.38;99.46;98864.32;1670783;85;25629;-39
2023/01/16 11:58:11;;;;;;;87.97;81.17;;;;;;;3.38;99.07;98858.98;1670945;85;25644;-38
2023/01/16 12:01:10;;;;;;;86.10;79.80;;;;;;;3.39;98.78;98864.58;1670836;85;26806;-39
2023/01/16 12:04:00;;;;;;;86.82;80.30;;;;;;;3.35;98.25;98852.88;1670993;85;25610;-40
2023/01/16 12:06:54;;;;;;;90.17;83.27;;;;;;;3.33;97.93;98847.05;1670915;85;27538;-39
2023/01/16 12:09:37;;;;;;;88.78;81.87;;;;;;;3.29;97.66;98848.19;1670841;85;25524;-39
2023/01/16 12:15:30;;;;;;;;;;;;;;;3.31;98.66;98834.53;1673371;85;25659;-38
2023/01/16 12:18:15;;;;;;;87.42;80.17;;;;;;;3.32;98.31;98833.42;1670397;85;25502;-38
2023/01/16 12:21:04;;;;;;;88.37;81.30;;;;;;;3.29;98.39;98822.80;1625114;88;27455;-39
2023/01/16 12:23:45;;;;;;;88.90;81.75;;;;;;;3.30;98.82;98824.91;1625163;88;25704;-39
2023/01/16 12:26:17;;;;;;;89.05;81.85;;;;;;;3.30;98.82;98816.38;1723138;83;25670;-39
2023/01/16 12:29:01;;;;;;;86.45;79.77;;;;;;;3.30;98.40;98815.03;1723028;83;25710;-38
2023/01/16 12:32:05;;;;;;;87.37;80.25;;;;;;;3.26;98.13;98816.70;1717731;83;25650;-38
2023/01/16 12:35:10;;;;;;;89.03;81.80;;;;;;;3.19;97.40;98816.30;1637075;87;27133;-38
2023/01/16 12:38:16;;;;;;;87.50;80.50;;;;;;;3.14;97.68;98816.40;1634199;87;25637;-38
2023/01/16 12:44:33;;;;;;;89.00;81.82;;;;;;;3.05;97.59;98811.47;1642187;87;25629;-40